sensor_id;sensor_type;location;lat;lon;timestamp;pressure;altitude;pressure_sealevel;temperature;humidity
39223;BME280;24936;46.328;11.026;2024-02-21T00:02:04;95209.13;;;-1.00;100.00
39223;BME280;24936;46.328;11.026;2024-02-21T00:04:30;95215.22;;;-1.03;100.00
39223;BME280;24936;46.328;11.026;2024-02-21T00:06:55;95210.69;;;-0.71;100.00
39223;BME280;24936;46.328;11.026;2024-02-21T00:09:20;95207.00;;;-0.89;100.00
39223;BME280;24936;46.328;11.026;2024-02-21T00:11:46;95207.25;;;-0.97;100.00
39223;BME280;24936;46.328;11.026;2024-02-21T00:14:11;95201.91;;;-1.17;100.00
39223;BME280;24936;46.328;11.026;2024-02-21T00:16:37;95205.75;;;-0.77;100.00
39223;BME280;24936;46.328;11.026;2024-02-21T00:19:02;95210.56;;;-0.91;100.00
39223;BME280;24936;46.328;11.026;2024-02-21T00:21:27;95213.31;;;-0.98;100.00
39223;BME280;24936;46.328;11.026;2024-02-21T00:23:53;95215.81;;;-0.95;100.00
39223;BME280;24936;46.328;11.026;2024-02-21T00:26:19;95209.59;;;-0.89;100.00
39223;BME280;24936;46.328;11.026;2024-02-21T00:28:44;95204.44;;;-0.90;100.00
39223;BME280;24936;46.328;11.026;2024-02-21T00:31:10;95210.13;;;-0.79;100.00
39223;BME280;24936;46.328;11.026;2024-02-21T00:33:36;95213.44;;;-0.75;100.00
39223;BME280;24936;46.328;11.026;2024-02-21T00:36:01;95210.75;;;-0.98;100.00
39223;BME280;24936;46.328;11.026;2024-02-21T00:38:27;95202.34;;;-1.04;100.00
39223;BME280;24936;46.328;11.026;2024-02-21T00:40:52;95197.31;;;-1.34;100.00
39223;BME280;24936;46.328;11.026;2024-02-21T00:43:18;95195.38;;;-1.28;100.00
39223;BME280;24936;46.328;11.026;2024-02-21T00:45:43;95196.34;;;-1.32;100.00
39223;BME280;24936;46.328;11.026;2024-02-21T00:48:09;95188.69;;;-1.08;100.00
39223;BME280;24936;46.328;11.026;2024-02-21T00:50:34;95196.66;;;-1.14;100.00
39223;BME280;24936;46.328;11.026;2024-02-21T00:52:59;95194.06;;;-1.14;100.00
39223;BME280;24936;46.328;11.026;2024-02-21T00:55:25;95201.69;;;-0.60;100.00
39223;BME280;24936;46.328;11.026;2024-02-21T00:57:50;95200.97;;;-0.89;100.00
39223;BME280;24936;46.328;11.026;2024-02-21T01:00:16;95208.31;;;-1.02;100.00
39223;BME280;24936;46.328;11.026;2024-02-21T01:02:42;95203.09;;;-1.01;100.00
39223;BME280;24936;46.328;11.026;2024-02-21T01:05:07;95216.91;;;-1.29;100.00
39223;BME280;24936;46.328;11.026;2024-02-21T01:07:33;95207.72;;;-1.38;100.00
39223;BME280;24936;46.328;11.026;2024-02-21T01:09:58;95211.84;;;-1.32;100.00
39223;BME280;24936;46.328;11.026;2024-02-21T01:12:24;95203.13;;;-1.55;100.00
39223;BME280;24936;46.328;11.026;2024-02-21T01:14:50;95203.13;;;-1.55;100.00
39223;BME280;24936;46.328;11.026;2024-02-21T01:17:15;95196.16;;;-1.52;100.00
39223;BME280;24936;46.328;11.026;2024-02-21T01:19:41;95196.66;;;-1.68;100.00
39223;BME280;24936;46.328;11.026;2024-02-21T01:22:06;95201.75;;;-1.66;100.00
39223;BME280;24936;46.328;11.026;2024-02-21T01:24:32;95204.72;;;-1.50;100.00
39223;BME280;24936;46.328;11.026;2024-02-21T01:26:57;95196.16;;;-1.52;100.00
39223;BME280;24936;46.328;11.026;2024-02-21T01:29:22;95189.78;;;-1.41;100.00
39223;BME280;24936;46.328;11.026;2024-02-21T01:31:48;95181.25;;;-1.17;100.00
39223;BME280;24936;46.328;11.026;2024-02-21T01:34:13;95179.88;;;-1.28;100.00
39223;BME280;24936;46.328;11.026;2024-02-21T01:36:39;95180.84;;;-1.59;100.00
39223;BME280;24936;46.328;11.026;2024-02-21T01:39:05;95179.31;;;-1.38;100.00
39223;BME280;24936;46.328;11.026;2024-02-21T01:41:30;95178.69;;;-1.44;100.00
39223;BME280;24936;46.328;11.026;2024-02-21T01:43:57;95175.16;;;-1.68;100.00
39223;BME280;24936;46.328;11.026;2024-02-21T01:46:23;95175.19;;;-1.70;100.00
39223;BME280;24936;46.328;11.026;2024-02-21T01:48:53;95178.81;;;-1.76;100.00
39223;BME280;24936;46.328;11.026;2024-02-21T01:51:18;95190.66;;;-1.97;100.00
39223;BME280;24936;46.328;11.026;2024-02-21T01:53:44;95185.84;;;-2.09;100.00
39223;BME280;24936;46.328;11.026;2024-02-21T01:56:12;95170.66;;;-2.19;100.00
39223;BME280;24936;46.328;11.026;2024-02-21T01:58:39;95174.94;;;-2.18;100.00
39223;BME280;24936;46.328;11.026;2024-02-21T02:01:06;95178.72;;;-2.01;100.00
39223;BME280;24936;46.328;11.026;2024-02-21T02:03:31;95177.59;;;-2.21;100.00
39223;BME280;24936;46.328;11.026;2024-02-21T02:05:57;95175.81;;;-2.19;100.00
39223;BME280;24936;46.328;11.026;2024-02-21T02:08:23;95182.84;;;-2.24;100.00
39223;BME280;24936;46.328;11.026;2024-02-21T02:10:49;95174.13;;;-2.20;100.00
39223;BME280;24936;46.328;11.026;2024-02-21T02:13:15;95176.66;;;-2.18;100.00
39223;BME280;24936;46.328;11.026;2024-02-21T02:15:42;95173.03;;;-2.12;100.00
39223;BME280;24936;46.328;11.026;2024-02-21T02:18:09;95169.16;;;-2.26;100.00
39223;BME280;24936;46.328;11.026;2024-02-21T02:20:35;95166.34;;;-2.48;100.00
39223;BME280;24936;46.328;11.026;2024-02-21T02:23:07;95157.94;;;-2.55;100.00
39223;BME280;24936;46.328;11.026;2024-02-21T02:25:33;95157.78;;;-2.49;100.00
39223;BME280;24936;46.328;11.026;2024-02-21T02:27:59;95156.84;;;-2.46;100.00
39223;BME280;24936;46.328;11.026;2024-02-21T02:30:25;95150.72;;;-2.43;100.00
39223;BME280;24936;46.328;11.026;2024-02-21T02:32:50;95157.69;;;-2.46;100.00
39223;BME280;24936;46.328;11.026;2024-02-21T02:35:16;95144.81;;;-2.46;100.00
39223;BME280;24936;46.328;11.026;2024-02-21T02:37:48;95149.44;;;-2.28;100.00
39223;BME280;24936;46.328;11.026;2024-02-21T02:40:14;95162.41;;;-2.30;100.00
39223;BME280;24936;46.328;11.026;2024-02-21T02:42:40;95162.22;;;-2.24;100.00
39223;BME280;24936;46.328;11.026;2024-02-21T02:45:05;95160.06;;;-2.38;100.00
39223;BME280;24936;46.328;11.026;2024-02-21T02:47:31;95170.13;;;-2.60;100.00
39223;BME280;24936;46.328;11.026;2024-02-21T02:49:57;95162.78;;;-2.74;100.00
39223;BME280;24936;46.328;11.026;2024-02-21T02:52:22;95158.56;;;-2.78;100.00
39223;BME280;24936;46.328;11.026;2024-02-21T02:54:48;95157.88;;;-2.83;100.00
39223;BME280;24936;46.328;11.026;2024-02-21T03:00:01;95153.88;;;-2.62;100.00
39223;BME280;24936;46.328;11.026;2024-02-21T03:02:26;95151.75;;;-2.79;100.00
39223;BME280;24936;46.328;11.026;2024-02-21T03:04:52;95156.13;;;-2.83;100.00
39223;BME280;24936;46.328;11.026;2024-02-21T03:07:19;95159.31;;;-2.73;100.00
39223;BME280;24936;46.328;11.026;2024-02-21T03:09:45;95153.88;;;-2.62;100.00
39223;BME280;24936;46.328;11.026;2024-02-21T03:12:10;95158.22;;;-2.64;100.00
39223;BME280;24936;46.328;11.026;2024-02-21T03:14:36;95160.06;;;-2.69;100.00
39223;BME280;24936;46.328;11.026;2024-02-21T03:17:05;95159.09;;;-2.65;100.00
39223;BME280;24936;46.328;11.026;2024-02-21T03:19:31;95154.47;;;-2.54;100.00
39223;BME280;24936;46.328;11.026;2024-02-21T03:21:56;95154.22;;;-2.44;100.00
39223;BME280;24936;46.328;11.026;2024-02-21T03:24:21;95143.81;;;-2.41;100.00
39223;BME280;24936;46.328;11.026;2024-02-21T03:26:48;95142.78;;;-2.36;100.00
39223;BME280;24936;46.328;11.026;2024-02-21T03:29:15;95146.81;;;-2.27;100.00
39223;BME280;24936;46.328;11.026;2024-02-21T03:31:41;95145.41;;;-2.09;100.00
39223;BME280;24936;46.328;11.026;2024-02-21T03:34:06;95143.63;;;-2.07;100.00
39223;BME280;24936;46.328;11.026;2024-02-21T03:36:31;95146.13;;;-2.32;100.00
39223;BME280;24936;46.328;11.026;2024-02-21T03:38:57;95136.06;;;-2.41;100.00
39223;BME280;24936;46.328;11.026;2024-02-21T03:41:23;95134.16;;;-2.35;100.00
39223;BME280;24936;46.328;11.026;2024-02-21T03:43:49;95141.94;;;-2.36;100.00
39223;BME280;24936;46.328;11.026;2024-02-21T03:46:14;95153.22;;;-2.40;100.00
39223;BME280;24936;46.328;11.026;2024-02-21T03:48:40;95149.59;;;-2.33;100.00
39223;BME280;24936;46.328;11.026;2024-02-21T03:51:06;95144.69;;;-2.42;100.00
39223;BME280;24936;46.328;11.026;2024-02-21T03:53:32;95145.78;;;-2.50;100.00
39223;BME280;24936;46.328;11.026;2024-02-21T03:56:01;95143.94;;;-2.76;100.00
39223;BME280;24936;46.328;11.026;2024-02-21T03:58:28;95147.72;;;-2.89;100.00
39223;BME280;24936;46.328;11.026;2024-02-21T04:00:53;95147.28;;;-2.72;100.00
39223;BME280;24936;46.328;11.026;2024-02-21T04:03:19;95156.47;;;-2.64;100.00
39223;BME280;24936;46.328;11.026;2024-02-21T04:05:45;95153.56;;;-2.83;100.00
39223;BME280;24936;46.328;11.026;2024-02-21T04:08:10;95155.50;;;-2.91;100.00
39223;BME280;24936;46.328;11.026;2024-02-21T04:10:36;95163.41;;;-2.97;100.00
39223;BME280;24936;46.328;11.026;2024-02-21T04:13:02;95159.81;;;-2.92;100.00
39223;BME280;24936;46.328;11.026;2024-02-21T04:15:27;95158.09;;;-2.91;100.00
39223;BME280;24936;46.328;11.026;2024-02-21T04:17:52;95158.00;;;-2.88;100.00
39223;BME280;24936;46.328;11.026;2024-02-21T04:20:18;95153.53;;;-2.81;100.00
39223;BME280;24936;46.328;11.026;2024-02-21T04:22:43;95159.50;;;-2.79;100.00
39223;BME280;24936;46.328;11.026;2024-02-21T04:25:10;95170.28;;;-2.98;100.00
39223;BME280;24936;46.328;11.026;2024-02-21T04:27:36;95165.78;;;-3.23;100.00
39223;BME280;24936;46.328;11.026;2024-02-21T04:30:03;95161.53;;;-3.25;100.00
39223;BME280;24936;46.328;11.026;2024-02-21T04:32:28;95167.50;;;-3.23;100.00
39223;BME280;24936;46.328;11.026;2024-02-21T04:34:54;95169.75;;;-3.11;100.00
39223;BME280;24936;46.328;11.026;2024-02-21T04:37:20;95168.00;;;-3.09;100.00
39223;BME280;24936;46.328;11.026;2024-02-21T04:39:45;95165.28;;;-3.02;100.00
39223;BME280;24936;46.328;11.026;2024-02-21T04:42:11;95168.19;;;-3.15;100.00
39223;BME280;24936;46.328;11.026;2024-02-21T04:44:37;95160.53;;;-3.18;100.00
39223;BME280;24936;46.328;11.026;2024-02-21T04:47:03;95160.84;;;-3.30;100.00
39223;BME280;24936;46.328;11.026;2024-02-21T04:49:29;95166.63;;;-3.22;100.00
39223;BME280;24936;46.328;11.026;2024-02-21T04:51:55;95161.47;;;-3.22;100.00
39223;BME280;24936;46.328;11.026;2024-02-21T04:54:20;95160.72;;;-3.26;100.00
39223;BME280;24936;46.328;11.026;2024-02-21T04:56:45;95163.50;;;-3.33;100.00
39223;BME280;24936;46.328;11.026;2024-02-21T04:59:11;95167.00;;;-3.38;100.00
39223;BME280;24936;46.328;11.026;2024-02-21T05:01:37;95169.44;;;-3.31;100.00
39223;BME280;24936;46.328;11.026;2024-02-21T05:04:02;95161.06;;;-3.40;100.00
39223;BME280;24936;46.328;11.026;2024-02-21T05:06:28;95155.72;;;-3.32;100.00
39223;BME280;24936;46.328;11.026;2024-02-21T05:08:54;95160.78;;;-3.29;100.00
39223;BME280;24936;46.328;11.026;2024-02-21T05:11:21;95168.38;;;-3.24;100.00
39223;BME280;24936;46.328;11.026;2024-02-21T05:13:46;95154.13;;;-3.36;100.00
39223;BME280;24936;46.328;11.026;2024-02-21T05:16:12;95163.50;;;-3.33;100.00
39223;BME280;24936;46.328;11.026;2024-02-21T05:18:38;95171.25;;;-3.35;100.00
39223;BME280;24936;46.328;11.026;2024-02-21T05:21:03;95168.03;;;-3.43;100.00
39223;BME280;24936;46.328;11.026;2024-02-21T05:23:29;95167.31;;;-3.48;100.00
39223;BME280;24936;46.328;11.026;2024-02-21T05:25:55;95172.59;;;-3.55;100.00
39223;BME280;24936;46.328;11.026;2024-02-21T05:28:20;95169.56;;;-3.36;100.00
39223;BME280;24936;46.328;11.026;2024-02-21T05:30:45;95170.25;;;-3.29;100.00
39223;BME280;24936;46.328;11.026;2024-02-21T05:33:11;95163.53;;;-3.35;100.00
39223;BME280;24936;46.328;11.026;2024-02-21T05:35:37;95174.84;;;-3.42;100.00
39223;BME280;24936;46.328;11.026;2024-02-21T05:38:03;95172.53;;;-3.53;100.00
39223;BME280;24936;46.328;11.026;2024-02-21T05:40:36;95165.13;;;-3.31;100.00
39223;BME280;24936;46.328;11.026;2024-02-21T05:43:02;95154.81;;;-3.29;100.00
39223;BME280;24936;46.328;11.026;2024-02-21T05:45:27;95155.63;;;-3.29;100.00
39223;BME280;24936;46.328;11.026;2024-02-21T05:47:53;95159.63;;;-3.17;100.00
39223;BME280;24936;46.328;11.026;2024-02-21T05:50:19;95155.50;;;-3.23;100.00
39223;BME280;24936;46.328;11.026;2024-02-21T05:52:46;95140.38;;;-3.36;100.00
39223;BME280;24936;46.328;11.026;2024-02-21T05:55:12;95141.94;;;-3.29;100.00
39223;BME280;24936;46.328;11.026;2024-02-21T05:57:39;95148.69;;;-3.25;100.00
39223;BME280;24936;46.328;11.026;2024-02-21T06:00:06;95152.22;;;-3.29;100.00
39223;BME280;24936;46.328;11.026;2024-02-21T06:02:32;95148.16;;;-3.38;100.00
39223;BME280;24936;46.328;11.026;2024-02-21T06:04:58;95146.59;;;-3.44;100.00
39223;BME280;24936;46.328;11.026;2024-02-21T06:07:24;95147.66;;;-3.53;100.00
39223;BME280;24936;46.328;11.026;2024-02-21T06:09:49;95151.13;;;-3.55;100.00
39223;BME280;24936;46.328;11.026;2024-02-21T06:12:15;95150.13;;;-3.48;100.00
39223;BME280;24936;46.328;11.026;2024-02-21T06:14:42;95146.59;;;-3.44;100.00
39223;BME280;24936;46.328;11.026;2024-02-21T06:17:08;95149.28;;;-3.48;100.00
39223;BME280;24936;46.328;11.026;2024-02-21T06:19:33;95145.59;;;-3.40;100.00
39223;BME280;24936;46.328;11.026;2024-02-21T06:21:59;95154.50;;;-3.17;100.00
39223;BME280;24936;46.328;11.026;2024-02-21T06:24:25;95149.41;;;-3.20;100.00
39223;BME280;24936;46.328;11.026;2024-02-21T06:26:51;95158.06;;;-3.23;100.00
39223;BME280;24936;46.328;11.026;2024-02-21T06:29:18;95153.28;;;-3.03;100.00
39223;BME280;24936;46.328;11.026;2024-02-21T06:31:43;95155.72;;;-2.99;100.00
39223;BME280;24936;46.328;11.026;2024-02-21T06:34:09;95159.31;;;-3.06;100.00
39223;BME280;24936;46.328;11.026;2024-02-21T06:36:35;95158.63;;;-3.11;100.00
39223;BME280;24936;46.328;11.026;2024-02-21T06:39:01;95156.59;;;-3.00;100.00
39223;BME280;24936;46.328;11.026;2024-02-21T06:41:32;95158.16;;;-2.94;100.00
39223;BME280;24936;46.328;11.026;2024-02-21T06:43:59;95152.81;;;-3.19;100.00
39223;BME280;24936;46.328;11.026;2024-02-21T06:46:28;95153.13;;;-3.30;100.00
39223;BME280;24936;46.328;11.026;2024-02-21T06:48:54;95169.47;;;-3.33;100.00
39223;BME280;24936;46.328;11.026;2024-02-21T06:51:23;95163.50;;;-3.33;100.00
39223;BME280;24936;46.328;11.026;2024-02-21T06:53:51;95168.47;;;-3.27;100.00
39223;BME280;24936;46.328;11.026;2024-02-21T06:56:17;95176.66;;;-3.11;100.00
39223;BME280;24936;46.328;11.026;2024-02-21T06:58:43;95182.97;;;-2.90;100.00
39223;BME280;24936;46.328;11.026;2024-02-21T07:01:10;95174.28;;;-2.86;100.00
39223;BME280;24936;46.328;11.026;2024-02-21T07:03:36;95173.97;;;-2.75;100.00
39223;BME280;24936;46.328;11.026;2024-02-21T07:06:08;95170.38;;;-2.69;100.00
39223;BME280;24936;46.328;11.026;2024-02-21T07:08:34;95174.19;;;-2.83;100.00
39223;BME280;24936;46.328;11.026;2024-02-21T07:11:00;95178.91;;;-2.67;100.00
39223;BME280;24936;46.328;11.026;2024-02-21T07:13:25;95181.50;;;-2.67;100.00
39223;BME280;24936;46.328;11.026;2024-02-21T07:15:51;95188.66;;;-2.47;100.00
39223;BME280;24936;46.328;11.026;2024-02-21T07:18:17;95182.03;;;-2.26;100.00
39223;BME280;24936;46.328;11.026;2024-02-21T07:20:43;95202.00;;;-2.03;100.00
39223;BME280;24936;46.328;11.026;2024-02-21T07:23:09;95203.41;;;-1.64;100.00
39223;BME280;24936;46.328;11.026;2024-02-21T07:25:35;95206.31;;;-1.46;100.00
39223;BME280;24936;46.328;11.026;2024-02-21T07:28:01;95209.97;;;-1.54;100.00
39223;BME280;24936;46.328;11.026;2024-02-21T07:30:26;95206.78;;;-1.62;100.00
39223;BME280;24936;46.328;11.026;2024-02-21T07:32:52;95208.91;;;-1.46;100.00
39223;BME280;24936;46.328;11.026;2024-02-21T07:35:18;95208.13;;;-1.23;100.00
39223;BME280;24936;46.328;11.026;2024-02-21T07:37:44;95208.56;;;-1.10;100.00
39223;BME280;24936;46.328;11.026;2024-02-21T07:40:14;95207.63;;;-0.82;100.00
39223;BME280;24936;46.328;11.026;2024-02-21T07:42:40;95209.25;;;-0.54;100.00
39223;BME280;24936;46.328;11.026;2024-02-21T07:45:08;95210.16;;;-0.32;100.00
39223;BME280;24936;46.328;11.026;2024-02-21T07:47:34;95198.19;;;-0.34;100.00
39223;BME280;24936;46.328;11.026;2024-02-21T07:50:00;95198.34;;;-0.15;100.00
39223;BME280;24936;46.328;11.026;2024-02-21T07:52:26;95198.03;;;-0.29;100.00
39223;BME280;24936;46.328;11.026;2024-02-21T07:55:05;95211.63;;;-0.01;100.00
39223;BME280;24936;46.328;11.026;2024-02-21T07:57:34;95211.56;;;0.47;100.00
39223;BME280;24936;46.328;11.026;2024-02-21T08:00:00;95221.25;;;0.85;100.00
39223;BME280;24936;46.328;11.026;2024-02-21T08:02:26;95207.00;;;1.17;100.00
39223;BME280;24936;46.328;11.026;2024-02-21T08:04:52;95203.91;;;0.87;100.00
39223;BME280;24936;46.328;11.026;2024-02-21T08:07:18;95200.53;;;0.85;100.00
39223;BME280;24936;46.328;11.026;2024-02-21T08:09:44;95203.19;;;0.83;100.00
39223;BME280;24936;46.328;11.026;2024-02-21T08:12:10;95201.47;;;0.62;100.00
39223;BME280;24936;46.328;11.026;2024-02-21T08:14:36;95201.66;;;0.57;100.00
39223;BME280;24936;46.328;11.026;2024-02-21T08:17:02;95199.34;;;0.49;100.00
39223;BME280;24936;46.328;11.026;2024-02-21T08:19:29;95199.91;;;1.00;100.00
39223;BME280;24936;46.328;11.026;2024-02-21T08:21:54;95195.88;;;1.14;100.00
39223;BME280;24936;46.328;11.026;2024-02-21T08:24:19;95186.56;;;1.10;100.00
39223;BME280;24936;46.328;11.026;2024-02-21T08:26:45;95188.63;;;1.01;100.00
39223;BME280;24936;46.328;11.026;2024-02-21T08:29:12;95185.44;;;0.95;100.00
39223;BME280;24936;46.328;11.026;2024-02-21T08:31:37;95180.06;;;0.99;100.00
39223;BME280;24936;46.328;11.026;2024-02-21T08:34:03;95187.09;;;1.58;100.00
39223;BME280;24936;46.328;11.026;2024-02-21T08:36:33;95194.63;;;1.83;100.00
39223;BME280;24936;46.328;11.026;2024-02-21T08:38:59;95191.47;;;1.76;100.00
39223;BME280;24936;46.328;11.026;2024-02-21T08:41:25;95191.47;;;1.76;100.00
39223;BME280;24936;46.328;11.026;2024-02-21T08:43:52;95187.56;;;1.87;100.00
39223;BME280;24936;46.328;11.026;2024-02-21T08:46:19;95183.53;;;1.98;100.00
39223;BME280;24936;46.328;11.026;2024-02-21T08:48:45;95171.31;;;2.20;100.00
39223;BME280;24936;46.328;11.026;2024-02-21T08:51:12;95171.41;;;2.55;100.00
39223;BME280;24936;46.328;11.026;2024-02-21T08:53:38;95173.56;;;2.64;100.00
39223;BME280;24936;46.328;11.026;2024-02-21T08:56:04;95165.22;;;2.93;100.00
39223;BME280;24936;46.328;11.026;2024-02-21T08:58:29;95159.66;;;3.18;100.00
39223;BME280;24936;46.328;11.026;2024-02-21T09:00:55;95158.84;;;3.51;100.00
39223;BME280;24936;46.328;11.026;2024-02-21T09:03:21;95157.16;;;4.00;100.00
39223;BME280;24936;46.328;11.026;2024-02-21T09:05:50;95152.63;;;4.19;100.00
39223;BME280;24936;46.328;11.026;2024-02-21T09:08:16;95156.03;;;5.72;94.54
39223;BME280;24936;46.328;11.026;2024-02-21T09:10:41;95158.72;;;6.83;70.61
39223;BME280;24936;46.328;11.026;2024-02-21T09:13:07;95151.66;;;8.27;67.53
39223;BME280;24936;46.328;11.026;2024-02-21T09:15:34;95152.44;;;8.41;59.16
39223;BME280;24936;46.328;11.026;2024-02-21T09:17:59;95157.44;;;8.57;59.62
39223;BME280;24936;46.328;11.026;2024-02-21T09:20:24;95145.34;;;8.92;58.80
39223;BME280;24936;46.328;11.026;2024-02-21T09:22:50;95141.22;;;8.76;60.82
39223;BME280;24936;46.328;11.026;2024-02-21T09:25:15;95132.06;;;8.45;62.56
39223;BME280;24936;46.328;11.026;2024-02-21T09:27:43;95142.59;;;8.93;51.75
39223;BME280;24936;46.328;11.026;2024-02-21T09:30:09;95141.44;;;9.44;51.08
39223;BME280;24936;46.328;11.026;2024-02-21T09:32:35;95137.50;;;10.52;48.14
39223;BME280;24936;46.328;11.026;2024-02-21T09:35:01;95134.75;;;10.54;45.72
39223;BME280;24936;46.328;11.026;2024-02-21T09:37:26;95141.31;;;10.71;43.19
39223;BME280;24936;46.328;11.026;2024-02-21T09:39:52;95130.94;;;10.35;42.83
39223;BME280;24936;46.328;11.026;2024-02-21T09:42:21;95134.06;;;10.18;41.63
39223;BME280;24936;46.328;11.026;2024-02-21T09:44:50;95126.41;;;10.49;39.94
39223;BME280;24936;46.328;11.026;2024-02-21T09:54:03;95126.19;;;10.84;35.27
39223;BME280;24936;46.328;11.026;2024-02-21T09:56:31;95117.91;;;10.57;37.46
39223;BME280;24936;46.328;11.026;2024-02-21T09:58:59;95125.28;;;10.63;35.68
39223;BME280;24936;46.328;11.026;2024-02-21T10:01:30;95117.28;;;11.91;33.94
39223;BME280;24936;46.328;11.026;2024-02-21T10:03:57;95114.81;;;13.88;31.93
39223;BME280;24936;46.328;11.026;2024-02-21T10:06:23;95125.19;;;14.09;31.00
39223;BME280;24936;46.328;11.026;2024-02-21T10:08:53;95112.69;;;12.75;31.77
39223;BME280;24936;46.328;11.026;2024-02-21T10:11:23;95113.63;;;11.52;32.57
39223;BME280;24936;46.328;11.026;2024-02-21T10:13:48;95117.44;;;13.01;31.21
39223;BME280;24936;46.328;11.026;2024-02-21T10:16:15;95125.84;;;14.21;28.47
39223;BME280;24936;46.328;11.026;2024-02-21T10:18:40;95114.38;;;14.30;30.33
39223;BME280;24936;46.328;11.026;2024-02-21T10:21:24;95116.72;;;13.19;30.34
39223;BME280;24936;46.328;11.026;2024-02-21T10:23:51;95101.09;;;11.96;33.87
39223;BME280;24936;46.328;11.026;2024-02-21T10:26:18;95098.75;;;12.44;32.05
39223;BME280;24936;46.328;11.026;2024-02-21T10:28:44;95092.38;;;12.46;33.67
39223;BME280;24936;46.328;11.026;2024-02-21T10:31:21;95096.53;;;13.37;32.51
39223;BME280;24936;46.328;11.026;2024-02-21T10:33:56;95085.56;;;12.53;33.38
39223;BME280;24936;46.328;11.026;2024-02-21T10:36:22;95093.25;;;13.15;31.59
39223;BME280;24936;46.328;11.026;2024-02-21T10:38:49;95082.47;;;11.98;33.82
39223;BME280;24936;46.328;11.026;2024-02-21T10:41:15;95081.22;;;9.98;35.28
39223;BME280;24936;46.328;11.026;2024-02-21T10:43:41;95076.34;;;11.14;35.02
39223;BME280;24936;46.328;11.026;2024-02-21T10:46:07;95058.50;;;12.01;35.90
39223;BME280;24936;46.328;11.026;2024-02-21T10:48:52;95067.16;;;11.91;34.22
39223;BME280;24936;46.328;11.026;2024-02-21T10:51:23;95060.41;;;11.68;35.71
39223;BME280;24936;46.328;11.026;2024-02-21T10:58:52;95048.19;;;12.38;33.46
39223;BME280;24936;46.328;11.026;2024-02-21T11:01:18;95034.25;;;11.86;34.59
39223;BME280;24936;46.328;11.026;2024-02-21T11:03:46;95033.16;;;12.39;33.42
39223;BME280;24936;46.328;11.026;2024-02-21T11:06:13;95020.94;;;12.38;35.03
39223;BME280;24936;46.328;11.026;2024-02-21T11:08:39;95022.47;;;12.90;34.39
39223;BME280;24936;46.328;11.026;2024-02-21T11:11:05;95017.88;;;12.43;33.61
39223;BME280;24936;46.328;11.026;2024-02-21T11:13:31;95018.84;;;12.42;34.97
39223;BME280;24936;46.328;11.026;2024-02-21T11:16:08;95015.53;;;12.30;33.74
39223;BME280;24936;46.328;11.026;2024-02-21T11:18:35;95017.19;;;12.50;34.90
39223;BME280;24936;46.328;11.026;2024-02-21T11:21:01;94999.53;;;12.70;34.56
39223;BME280;24936;46.328;11.026;2024-02-21T11:23:27;94998.31;;;13.32;34.04
39223;BME280;24936;46.328;11.026;2024-02-21T11:25:52;95000.91;;;14.35;30.64
39223;BME280;24936;46.328;11.026;2024-02-21T11:28:25;94986.66;;;13.72;32.23
39223;BME280;24936;46.328;11.026;2024-02-21T11:30:51;94984.81;;;13.35;32.28
39223;BME280;24936;46.328;11.026;2024-02-21T11:33:16;94984.78;;;14.65;30.07
39223;BME280;24936;46.328;11.026;2024-02-21T11:35:42;94979.97;;;14.60;30.13
39223;BME280;24936;46.328;11.026;2024-02-21T11:38:11;94970.97;;;14.89;29.87
39223;BME280;24936;46.328;11.026;2024-02-21T11:40:43;94967.38;;;15.25;29.55
39223;BME280;24936;46.328;11.026;2024-02-21T11:43:08;94970.28;;;14.33;29.79
39223;BME280;24936;46.328;11.026;2024-02-21T11:45:34;94959.06;;;13.47;31.00
39223;BME280;24936;46.328;11.026;2024-02-21T11:47:59;94948.84;;;13.90;33.91
39223;BME280;24936;46.328;11.026;2024-02-21T11:50:31;94946.81;;;14.20;32.28
39223;BME280;24936;46.328;11.026;2024-02-21T11:52:57;94940.19;;;13.88;31.85
39223;BME280;24936;46.328;11.026;2024-02-21T11:55:23;94938.22;;;13.34;33.93
39223;BME280;24936;46.328;11.026;2024-02-21T11:57:49;94935.59;;;12.87;33.13
39223;BME280;24936;46.328;11.026;2024-02-21T12:00:16;94926.88;;;13.61;32.03
39223;BME280;24936;46.328;11.026;2024-02-21T12:02:43;94927.28;;;12.72;32.14
39223;BME280;24936;46.328;11.026;2024-02-21T12:05:09;94918.63;;;12.89;33.40
39223;BME280;24936;46.328;11.026;2024-02-21T12:07:36;94908.56;;;12.16;34.00
39223;BME280;24936;46.328;11.026;2024-02-21T12:10:09;94907.09;;;12.80;32.76
39223;BME280;24936;46.328;11.026;2024-02-21T12:12:36;94909.19;;;14.26;30.66
39223;BME280;24936;46.328;11.026;2024-02-21T12:15:06;94900.19;;;15.08;31.02
39223;BME280;24936;46.328;11.026;2024-02-21T12:17:33;94898.72;;;15.13;31.00
39223;BME280;24936;46.328;11.026;2024-02-21T12:19:59;94902.72;;;13.09;30.29
39223;BME280;24936;46.328;11.026;2024-02-21T12:22:25;94891.88;;;13.40;30.50
39223;BME280;24936;46.328;11.026;2024-02-21T12:24:51;94879.50;;;13.68;30.30
39223;BME280;24936;46.328;11.026;2024-02-21T12:27:17;94875.84;;;13.97;30.80
39223;BME280;24936;46.328;11.026;2024-02-21T12:29:42;94873.94;;;13.71;30.38
39223;BME280;24936;46.328;11.026;2024-02-21T12:32:08;94871.47;;;13.60;30.76
39223;BME280;24936;46.328;11.026;2024-02-21T12:34:33;94864.88;;;14.73;28.70
39223;BME280;24936;46.328;11.026;2024-02-21T12:36:59;94853.75;;;14.95;30.33
39223;BME280;24936;46.328;11.026;2024-02-21T12:39:25;94857.44;;;14.58;29.49
39223;BME280;24936;46.328;11.026;2024-02-21T12:41:54;94859.25;;;15.45;27.50
39223;BME280;24936;46.328;11.026;2024-02-21T12:44:21;94854.41;;;14.27;27.97
39223;BME280;24936;46.328;11.026;2024-02-21T12:46:46;94846.50;;;14.53;28.00
39223;BME280;24936;46.328;11.026;2024-02-21T12:49:16;94848.28;;;14.26;28.62
39223;BME280;24936;46.328;11.026;2024-02-21T12:51:42;94833.09;;;14.55;29.55
39223;BME280;24936;46.328;11.026;2024-02-21T12:54:07;94836.34;;;13.68;28.19